Terminal Aerodrome Forecast
Issued by NWS

Home | Current Version | Previous Version | Text Only | Print | Product List | Glossary On
Versions: 1 2 3 4 5 6 7 8 9 10 11 12 13 14 15 16 17 18 19 20 21 22 23 24 25 26 27 28 29 30 31 32 33 34 35 36
298
FTUS45 KSLC 082135 AAB
TAF36U
TAF AMD
K36U 082135Z 0822/0918 VRB04KT 1SM -SN SCT009 BKN010 OVC030
     FM082300 VRB04KT 1SM -SN BR SCT003 BKN007
     FM091000 VRB04KT 1/2SM SN OVC008
     FM091400 VRB04KT 2SM -SN BKN007 OVC020=

USA.gov is the U.S. government's official web portal to all federal, state and local government web resources and services.